createdAt,value
2018-03-01T00:01:13.038Z,101072.05
2018-03-01T00:03:40.748Z,101077.39
2018-03-01T00:06:08.497Z,101076.59
2018-03-01T00:08:36.212Z,101075.02
2018-03-01T00:11:03.890Z,101079.51
2018-03-01T00:13:31.748Z,101073.48
2018-03-01T00:15:59.431Z,101068.96
2018-03-01T00:18:27.118Z,101066.47
2018-03-01T00:20:54.870Z,101065.95
2018-03-01T00:23:22.572Z,101051.30
2018-03-01T00:25:50.300Z,101060.17
2018-03-01T00:28:18.132Z,101053.22
2018-03-01T00:30:46.014Z,101057.55
2018-03-01T00:33:13.791Z,101055.11
2018-03-01T00:35:41.465Z,101053.75
2018-03-01T00:38:09.136Z,101056.55
2018-03-01T00:40:36.814Z,101051.48
2018-03-01T00:43:04.536Z,101038.64
2018-03-01T00:45:32.369Z,101040.98
2018-03-01T00:48:00.042Z,101052.21
2018-03-01T00:50:28.027Z,101050.09
2018-03-01T00:52:55.685Z,101045.14
2018-03-01T00:55:23.481Z,101044.54
2018-03-01T00:57:51.128Z,101047.05
2018-03-01T01:00:18.814Z,101045.84
2018-03-01T01:02:46.409Z,101040.49
2018-03-01T01:05:14.236Z,101037.16
2018-03-01T01:07:42.025Z,101027.76
2018-03-01T01:10:09.797Z,101017.80
2018-03-01T01:12:37.560Z,101009.97
2018-03-01T01:15:05.157Z,101024.98
2018-03-01T01:17:32.757Z,101015.99
2018-03-01T01:20:00.644Z,101014.86
2018-03-01T01:22:28.292Z,101000.81
2018-03-01T01:24:55.877Z,101007.75
2018-03-01T01:27:23.472Z,101003.73
2018-03-01T01:29:51.195Z,100985.75
2018-03-01T01:32:19.022Z,100990.33
2018-03-01T01:34:46.797Z,100996.77
2018-03-01T01:37:14.524Z,100986.34
2018-03-01T01:39:42.353Z,100988.42
2018-03-01T01:42:10.018Z,100982.89
2018-03-01T01:44:37.700Z,100972.45
2018-03-01T01:47:05.347Z,100975.98
2018-03-01T01:49:33.037Z,100979.75
2018-03-01T01:52:00.672Z,100989.92
2018-03-01T01:54:28.284Z,100972.92
2018-03-01T01:56:56.077Z,100964.92
2018-03-01T01:59:23.725Z,100945.09
2018-03-01T02:01:51.387Z,100960.91
2018-03-01T02:04:18.961Z,100949.42
2018-03-01T02:06:46.777Z,100948.06
2018-03-01T02:09:14.508Z,100947.66
2018-03-01T02:11:42.234Z,100936.09
2018-03-01T02:14:09.825Z,100936.66
2018-03-01T02:16:37.534Z,100934.22
2018-03-01T02:19:05.358Z,100925.50
2018-03-01T02:21:32.978Z,100921.48
2018-03-01T02:24:00.709Z,100921.37
2018-03-01T02:26:28.491Z,100905.74
2018-03-01T02:28:56.163Z,100904.86
2018-03-01T02:31:23.840Z,100905.96
2018-03-01T02:33:51.620Z,100893.53
2018-03-01T02:36:31.272Z,100891.28
2018-03-01T02:38:59.000Z,100880.94
2018-03-01T02:41:26.730Z,100886.80
2018-03-01T02:43:54.394Z,100872.48
2018-03-01T02:46:21.984Z,100878.28
2018-03-01T02:48:49.714Z,100871.20
2018-03-01T02:51:17.537Z,100863.90
2018-03-01T02:53:45.199Z,100854.75
2018-03-01T02:56:12.878Z,100848.95
2018-03-01T02:58:40.865Z,100845.84
2018-03-01T03:01:08.540Z,100842.78
2018-03-01T03:03:36.140Z,100831.22
2018-03-01T03:06:03.800Z,100836.98
2018-03-01T03:08:31.460Z,100839.00
2018-03-01T03:10:59.140Z,100824.45
2018-03-01T03:13:27.020Z,100816.28
2018-03-01T03:15:54.693Z,100831.22
2018-03-01T03:18:22.288Z,100826.08
2018-03-01T03:20:50.126Z,100829.14
2018-03-01T03:23:17.718Z,100821.03
2018-03-01T03:25:45.388Z,100821.03
2018-03-01T03:28:13.068Z,100831.77
2018-03-01T03:30:40.732Z,100822.32
2018-03-01T03:33:08.359Z,100834.82
2018-03-01T03:35:36.199Z,100821.82
2018-03-01T03:38:03.789Z,100818.12
2018-03-01T03:40:31.548Z,100819.00
2018-03-01T03:42:59.321Z,100806.80
2018-03-01T03:45:26.990Z,100798.22
2018-03-01T03:47:54.728Z,100796.84
2018-03-01T03:50:22.555Z,100817.30
2018-03-01T03:52:50.336Z,100799.80
2018-03-01T03:55:18.002Z,100791.21
2018-03-01T03:57:45.641Z,100795.26
2018-03-01T04:00:13.357Z,100788.98
2018-03-01T04:02:41.033Z,100794.29
2018-03-01T04:05:08.681Z,100779.28
2018-03-01T04:07:36.375Z,100766.74
2018-03-01T04:10:04.052Z,100771.91
2018-03-01T04:12:31.688Z,100773.67
2018-03-01T04:14:59.398Z,100770.35
2018-03-01T04:17:27.192Z,100773.67
2018-03-01T04:19:54.853Z,100767.25
2018-03-01T04:22:22.648Z,100787.73
2018-03-01T04:24:50.415Z,100774.88
2018-03-01T04:27:18.023Z,100769.97
2018-03-01T04:29:45.980Z,100784.36
2018-03-01T04:32:13.650Z,100770.94
2018-03-01T04:34:41.413Z,100776.17
2018-03-01T04:37:09.102Z,100776.07
2018-03-01T04:39:36.700Z,100779.62
2018-03-01T04:42:04.444Z,100779.86
2018-03-01T04:44:32.122Z,100777.28
2018-03-01T04:46:59.870Z,100784.82
2018-03-01T04:49:27.527Z,100776.37
2018-03-01T04:51:55.228Z,100784.18
2018-03-01T04:54:22.841Z,100797.13
2018-03-01T04:56:50.601Z,100780.59
2018-03-01T04:59:18.203Z,100784.50
2018-03-01T05:01:45.947Z,100773.41
2018-03-01T05:04:13.843Z,100767.87
2018-03-01T05:06:41.615Z,100752.39
2018-03-01T05:09:09.397Z,100759.63
2018-03-01T05:11:37.233Z,100762.64
2018-03-01T05:14:04.852Z,100762.33
2018-03-01T05:16:32.626Z,100770.92
2018-03-01T05:19:00.282Z,100767.96
2018-03-01T05:21:27.882Z,100760.42
2018-03-01T05:23:55.552Z,100762.09
2018-03-01T05:26:23.302Z,100749.34
2018-03-01T05:28:51.006Z,100748.29
2018-03-01T05:31:18.617Z,100758.34
2018-03-01T05:33:46.465Z,100751.27
2018-03-01T05:36:14.333Z,100749.49
2018-03-01T05:38:41.985Z,100747.64
2018-03-01T05:41:09.669Z,100739.53
2018-03-01T05:43:37.464Z,100740.83
2018-03-01T05:46:05.346Z,100751.50
2018-03-01T05:48:33.008Z,100747.08
2018-03-01T05:51:00.797Z,100747.02
2018-03-01T05:53:28.581Z,100767.56
2018-03-01T05:55:56.299Z,100751.11
2018-03-01T05:58:23.889Z,100749.56
2018-03-01T06:00:51.600Z,100743.94
2018-03-01T06:03:19.274Z,100741.14
2018-03-01T06:05:46.952Z,100744.11
2018-03-01T06:08:14.826Z,100754.23
2018-03-01T06:10:42.494Z,100769.66
2018-03-01T06:13:10.180Z,100770.46
2018-03-01T06:15:38.065Z,100774.80
2018-03-01T06:18:05.653Z,100775.20
2018-03-01T06:20:33.386Z,100778.25
2018-03-01T06:23:01.193Z,100775.38
2018-03-01T06:25:28.915Z,100773.83
2018-03-01T06:27:56.892Z,100771.82
2018-03-01T06:30:24.503Z,100737.11
2018-03-01T06:32:52.156Z,100759.05
2018-03-01T06:35:19.873Z,100772.22
2018-03-01T06:37:47.548Z,100758.73
2018-03-01T06:40:15.532Z,100748.45
2018-03-01T06:42:43.208Z,100733.66
2018-03-01T06:45:10.852Z,100719.21
2018-03-01T06:47:38.752Z,100722.84
2018-03-01T06:50:06.436Z,100716.33
2018-03-01T06:52:34.215Z,100709.95
2018-03-01T06:55:02.096Z,100720.67
2018-03-01T06:57:29.773Z,100695.81
2018-03-01T06:59:57.651Z,100699.04
2018-03-01T07:02:25.328Z,100706.58
2018-03-01T07:04:52.992Z,100685.75
2018-03-01T07:07:20.793Z,100694.58
2018-03-01T07:09:48.393Z,100696.92
2018-03-01T07:12:16.121Z,100694.71
2018-03-01T07:14:43.775Z,100689.08
2018-03-01T07:17:11.478Z,100680.56
2018-03-01T07:19:39.150Z,100680.78
2018-03-01T07:22:06.825Z,100704.99
2018-03-01T07:24:34.710Z,100704.23
2018-03-01T07:27:02.450Z,100703.42
2018-03-01T07:29:30.164Z,100700.69
2018-03-01T07:31:57.833Z,100693.63
2018-03-01T07:34:25.539Z,100690.64
2018-03-01T07:36:53.141Z,100684.30
2018-03-01T07:39:20.863Z,100696.30
2018-03-01T07:41:48.595Z,100673.20
2018-03-01T07:44:16.239Z,100657.28
2018-03-01T07:46:43.861Z,100660.16
2018-03-01T07:49:11.669Z,100660.94
2018-03-01T07:51:39.339Z,100639.14
2018-03-01T07:54:07.031Z,100670.64
2018-03-01T07:56:34.649Z,100652.04
2018-03-01T07:59:02.320Z,100651.35
2018-03-01T08:01:30.037Z,100655.66
2018-03-01T08:03:57.721Z,100657.52
2018-03-01T08:06:25.389Z,100656.86
2018-03-01T08:08:53.069Z,100653.71
2018-03-01T08:11:20.715Z,100654.84
2018-03-01T08:13:48.523Z,100657.05
2018-03-01T08:16:16.244Z,100647.88
2018-03-01T08:18:43.961Z,100616.75
2018-03-01T08:21:11.760Z,100636.73
2018-03-01T08:23:39.430Z,100627.96
2018-03-01T08:26:07.063Z,100620.45
2018-03-01T08:28:34.883Z,100624.41
2018-03-01T08:31:02.551Z,100622.57
2018-03-01T08:33:30.143Z,100614.50
2018-03-01T08:35:57.722Z,100614.64
2018-03-01T08:38:25.332Z,100597.55
2018-03-01T08:40:52.919Z,100613.65
2018-03-01T08:43:20.628Z,100589.83
2018-03-01T08:45:48.214Z,100606.98
2018-03-01T08:48:15.976Z,100591.98
2018-03-01T08:50:43.650Z,100596.01
2018-03-01T08:53:11.243Z,100599.13
2018-03-01T08:55:39.007Z,100591.39
2018-03-01T08:58:06.889Z,100590.32
2018-03-01T09:00:34.545Z,100592.22
2018-03-01T09:03:02.276Z,100595.88
2018-03-01T09:05:30.117Z,100579.25
2018-03-01T09:07:57.787Z,100593.97
2018-03-01T09:10:25.652Z,100574.97
2018-03-01T09:12:53.394Z,100584.28
2018-03-01T09:15:20.968Z,100578.38
2018-03-01T09:17:48.615Z,100580.96
2018-03-01T09:20:16.254Z,100581.31
2018-03-01T09:22:44.043Z,100571.06
2018-03-01T09:25:11.657Z,100572.80
2018-03-01T09:27:39.288Z,100565.01
2018-03-01T09:30:07.029Z,100577.07
2018-03-01T09:32:34.610Z,100569.31
2018-03-01T09:35:02.196Z,100555.30
2018-03-01T09:37:29.993Z,100533.14
2018-03-01T09:39:57.567Z,100520.56
2018-03-01T09:42:25.147Z,100521.23
2018-03-01T09:44:52.916Z,100520.84
2018-03-01T09:47:20.501Z,100528.39
2018-03-01T09:49:48.171Z,100537.86
2018-03-01T09:52:15.761Z,100536.90
2018-03-01T09:54:43.353Z,100535.02
2018-03-01T09:57:11.081Z,100525.61
2018-03-01T09:59:38.664Z,100519.19
2018-03-01T10:02:06.324Z,100526.78
2018-03-01T10:04:34.118Z,100525.59
2018-03-01T10:07:02.119Z,100504.64
2018-03-01T10:09:29.982Z,100529.25
2018-03-01T10:11:57.643Z,100500.97
2018-03-01T10:14:25.529Z,100516.59
2018-03-01T10:16:53.306Z,100504.02
2018-03-01T10:19:20.967Z,100524.37
2018-03-01T10:21:48.658Z,100497.33
2018-03-01T10:24:16.323Z,100510.38
2018-03-01T10:26:44.004Z,100485.86
2018-03-01T10:29:11.747Z,100493.28
2018-03-01T10:31:39.357Z,100459.02
2018-03-01T10:34:07.032Z,100479.92
2018-03-01T10:36:34.710Z,100474.89
2018-03-01T10:39:02.370Z,100462.41
2018-03-01T10:41:30.165Z,100460.83
2018-03-01T10:43:57.892Z,100447.81
2018-03-01T10:46:25.520Z,100436.86
2018-03-01T10:48:53.106Z,100447.94
2018-03-01T10:51:20.818Z,100453.42
2018-03-01T10:53:48.528Z,100454.55
2018-03-01T10:56:16.317Z,100441.01
2018-03-01T10:58:44.101Z,100443.87
2018-03-01T11:01:17.192Z,100454.09
2018-03-01T11:03:44.858Z,100434.98
2018-03-01T11:06:12.549Z,100419.81
2018-03-01T11:08:40.329Z,100415.63
2018-03-01T11:11:08.069Z,100409.59
2018-03-01T11:13:35.837Z,100418.98
2018-03-01T11:16:03.413Z,100423.20
2018-03-01T11:18:31.232Z,100414.20
2018-03-01T11:20:59.006Z,100405.36
2018-03-01T11:23:26.671Z,100401.03
2018-03-01T11:25:54.293Z,100387.42
2018-03-01T11:28:22.028Z,100390.82
2018-03-01T11:30:49.737Z,100385.41
2018-03-01T11:33:17.325Z,100372.58
2018-03-01T11:35:45.165Z,100382.84
2018-03-01T11:38:12.923Z,100360.95
2018-03-01T11:40:40.610Z,100365.71
2018-03-01T11:43:08.357Z,100367.08
2018-03-01T11:45:36.070Z,100372.17
2018-03-01T11:48:03.816Z,100378.08
2018-03-01T11:50:31.548Z,100337.69
2018-03-01T11:52:59.472Z,100343.98
2018-03-01T11:55:27.172Z,100329.45
2018-03-01T11:57:54.956Z,100323.69
2018-03-01T12:00:22.736Z,100313.14
2018-03-01T12:02:50.514Z,100330.55
2018-03-01T12:05:18.293Z,100326.28
2018-03-01T12:07:46.075Z,100332.75
2018-03-01T12:10:13.954Z,100330.25
2018-03-01T12:12:41.618Z,100333.36
2018-03-01T12:15:09.241Z,100333.62
2018-03-01T12:17:37.074Z,100321.48
2018-03-01T12:20:04.749Z,100320.91
2018-03-01T12:22:32.441Z,100313.55
2018-03-01T12:25:00.304Z,100302.81
2018-03-01T12:27:27.973Z,100301.25
2018-03-01T12:29:55.756Z,100312.02
2018-03-01T12:32:23.537Z,100307.19
2018-03-01T12:34:51.153Z,100309.36
2018-03-01T12:37:18.884Z,100309.12
2018-03-01T12:39:46.629Z,100319.44
2018-03-01T12:42:14.332Z,100336.47
2018-03-01T12:44:41.938Z,100327.22
2018-03-01T12:47:09.797Z,100305.56
2018-03-01T12:49:37.679Z,100307.33
2018-03-01T12:52:05.406Z,100307.53
2018-03-01T12:54:33.130Z,100303.42
2018-03-01T12:57:00.743Z,100318.72
2018-03-01T12:59:28.486Z,100311.42
2018-03-01T13:01:56.248Z,100309.91
2018-03-01T13:04:39.794Z,100300.98
2018-03-01T13:07:07.583Z,100288.70
2018-03-01T13:09:35.325Z,100269.61
2018-03-01T13:12:03.131Z,100288.97
2018-03-01T13:14:30.903Z,100267.75
2018-03-01T13:16:58.524Z,100281.66
2018-03-01T13:19:26.172Z,100253.19
2018-03-01T13:21:53.838Z,100249.02
2018-03-01T13:24:21.512Z,100241.35
2018-03-01T13:26:49.289Z,100225.86
2018-03-01T13:29:17.074Z,100225.24
2018-03-01T13:34:49.187Z,100225.86
2018-03-01T13:37:16.958Z,100228.84
2018-03-01T13:39:44.735Z,100219.42
2018-03-01T13:42:27.272Z,100214.03
2018-03-01T13:44:54.885Z,100207.38
2018-03-01T13:50:21.630Z,100184.72
2018-03-01T13:52:49.510Z,100191.85
2018-03-01T13:55:17.179Z,100179.86
2018-03-01T13:57:44.844Z,100166.98
2018-03-01T14:00:12.634Z,100168.05
2018-03-01T14:02:40.513Z,100174.20
2018-03-01T14:05:08.297Z,100172.72
2018-03-01T14:07:40.562Z,100163.59
2018-03-01T14:10:08.253Z,100158.63
2018-03-01T14:12:40.693Z,100165.13
2018-03-01T14:15:08.521Z,100163.60
2018-03-01T14:17:51.038Z,100150.51
2018-03-01T14:23:24.025Z,100143.45
2018-03-01T14:25:53.189Z,100148.39
2018-03-01T14:31:23.154Z,100137.48
2018-03-01T14:33:51.032Z,100136.14
2018-03-01T14:36:18.900Z,100148.73
2018-03-01T14:38:46.677Z,100144.10
2018-03-01T14:41:14.417Z,100142.22
2018-03-01T14:43:42.140Z,100127.02
2018-03-01T14:46:09.815Z,100136.04
2018-03-01T14:48:37.484Z,100128.53
2018-03-01T14:51:05.278Z,100131.80
2018-03-01T14:53:33.049Z,100129.65
2018-03-01T14:56:00.823Z,100132.29
2018-03-01T14:58:28.603Z,100115.16
2018-03-01T15:00:56.380Z,100084.83
2018-03-01T15:03:24.163Z,100111.31
2018-03-01T15:05:52.037Z,100099.27
2018-03-01T15:08:19.646Z,100102.92
2018-03-01T15:10:47.497Z,100111.49
2018-03-01T15:13:15.092Z,100106.78
2018-03-01T15:15:42.738Z,100102.09
2018-03-01T15:18:10.508Z,100097.19
2018-03-01T15:20:38.189Z,100106.50
2018-03-01T15:23:06.078Z,100086.44
2018-03-01T15:25:33.931Z,100093.34
2018-03-01T15:28:01.642Z,100094.52
2018-03-01T15:30:29.228Z,100062.61
2018-03-01T15:32:57.187Z,100088.76
2018-03-01T15:35:24.963Z,100068.13
2018-03-01T15:37:52.545Z,100060.16
2018-03-01T15:40:20.217Z,100064.11
2018-03-01T15:42:47.812Z,100050.82
2018-03-01T15:45:15.451Z,100060.02
2018-03-01T15:47:43.127Z,100069.22
2018-03-01T15:50:10.910Z,100049.28
2018-03-01T15:52:38.690Z,100051.95
2018-03-01T15:55:06.362Z,100040.66
2018-03-01T15:57:34.030Z,100039.68
2018-03-01T16:00:01.816Z,100018.12
2018-03-01T16:02:29.400Z,100041.36
2018-03-01T16:04:57.065Z,100050.81
2018-03-01T16:07:24.714Z,100048.12
2018-03-01T16:09:52.300Z,100040.47
2018-03-01T16:12:19.984Z,100036.81
2018-03-01T16:14:47.650Z,100047.47
2018-03-01T16:17:15.336Z,100035.97
2018-03-01T16:19:43.012Z,100046.45
2018-03-01T16:22:10.656Z,100044.44
2018-03-01T16:24:38.474Z,100034.93
2018-03-01T16:27:06.214Z,100040.93
2018-03-01T16:29:33.916Z,100044.53
2018-03-01T16:32:01.595Z,100021.85
2018-03-01T16:34:29.194Z,100026.36
2018-03-01T16:36:56.835Z,100043.48
2018-03-01T16:39:24.630Z,100030.64
2018-03-01T16:41:52.502Z,100024.01
2018-03-01T16:44:20.281Z,100037.95
2018-03-01T16:46:48.058Z,100043.64
2018-03-01T16:49:15.718Z,100047.34
2018-03-01T16:51:43.615Z,100057.70
2018-03-01T16:54:11.388Z,100051.95
2018-03-01T16:56:39.066Z,100034.73
2018-03-01T16:59:06.738Z,100048.17
2018-03-01T17:01:34.380Z,100042.89
2018-03-01T17:04:02.091Z,100033.66
2018-03-01T17:06:29.768Z,100043.14
2018-03-01T17:08:57.545Z,100036.75
2018-03-01T17:11:25.323Z,100032.30
2018-03-01T17:13:52.980Z,100047.92
2018-03-01T17:16:20.593Z,100040.48
2018-03-01T17:18:48.245Z,100037.36
2018-03-01T17:21:16.024Z,100030.72
2018-03-01T17:23:43.652Z,100037.69
2018-03-01T17:26:11.367Z,100044.55
2018-03-01T17:28:39.161Z,100068.44
2018-03-01T17:31:06.887Z,100061.29
2018-03-01T17:33:34.602Z,100053.55
2018-03-01T17:36:02.279Z,100059.70
2018-03-01T17:38:29.954Z,100045.40
2018-03-01T17:40:57.697Z,100044.79
2018-03-01T17:43:25.513Z,100059.33
2018-03-01T17:45:53.390Z,100053.68
2018-03-01T17:48:21.171Z,100054.00
2018-03-01T17:50:48.767Z,100057.05
2018-03-01T17:53:16.411Z,100057.16
2018-03-01T17:55:44.146Z,100062.75
2018-03-01T17:58:11.877Z,100063.93
2018-03-01T18:00:39.632Z,100061.27
2018-03-01T18:03:07.205Z,100067.93
2018-03-01T18:05:34.896Z,100046.74
2018-03-01T18:08:02.777Z,100037.91
2018-03-01T18:10:30.515Z,100045.16
2018-03-01T18:12:58.332Z,100047.23
2018-03-01T18:15:26.074Z,100039.58
2018-03-01T18:17:53.890Z,100036.20
2018-03-01T18:20:21.606Z,100034.12
2018-03-01T18:22:49.245Z,100035.80
2018-03-01T18:25:16.904Z,100039.61
2018-03-01T18:27:44.572Z,100044.66
2018-03-01T18:30:12.226Z,100043.98
2018-03-01T18:32:39.938Z,100043.27
2018-03-01T18:35:07.715Z,100047.94
2018-03-01T18:37:35.492Z,100044.06
2018-03-01T18:40:03.170Z,100043.66
2018-03-01T18:42:30.944Z,100049.52
2018-03-01T18:44:58.722Z,100059.88
2018-03-01T18:47:26.433Z,100054.99
2018-03-01T18:49:54.073Z,100057.97
2018-03-01T18:52:21.652Z,100053.52
2018-03-01T18:54:49.274Z,100046.46
2018-03-01T18:57:17.000Z,100049.84
2018-03-01T18:59:44.592Z,100056.19
2018-03-01T19:02:12.457Z,100050.62
2018-03-01T19:04:40.123Z,100045.97
2018-03-01T19:07:07.791Z,100041.98
2018-03-01T19:09:35.577Z,100045.45
2018-03-01T19:12:03.353Z,100026.09
2018-03-01T19:14:31.013Z,100039.20
2018-03-01T19:16:58.602Z,100038.98
2018-03-01T19:19:26.274Z,100035.20
2018-03-01T19:21:54.076Z,100027.08
2018-03-01T19:24:21.719Z,100031.83
2018-03-01T19:26:49.410Z,100018.34
2018-03-01T19:29:17.075Z,100009.77
2018-03-01T19:31:44.831Z,100016.25
2018-03-01T19:34:12.629Z,100021.91
2018-03-01T19:36:40.228Z,100009.68
2018-03-01T19:39:07.884Z,100011.39
2018-03-01T19:41:35.666Z,100008.30
2018-03-01T19:44:03.336Z,100012.27
2018-03-01T19:46:31.116Z,99993.30
2018-03-01T19:48:58.692Z,100016.81
2018-03-01T19:51:26.364Z,99990.60
2018-03-01T19:53:53.941Z,100006.09
2018-03-01T19:56:21.724Z,99991.81
2018-03-01T19:58:49.395Z,99989.11
2018-03-01T20:01:17.079Z,99983.55
2018-03-01T20:03:44.853Z,99986.13
2018-03-01T20:06:12.507Z,99987.12
2018-03-01T20:08:40.296Z,99993.67
2018-03-01T20:11:08.078Z,99984.18
2018-03-01T20:13:35.761Z,99979.88
2018-03-01T20:16:03.428Z,99991.49
2018-03-01T20:18:31.010Z,99995.38
2018-03-01T20:20:58.675Z,99993.90
2018-03-01T20:23:26.324Z,99998.48
2018-03-01T20:25:54.015Z,99993.39
2018-03-01T20:28:21.690Z,99991.12
2018-03-01T20:30:49.377Z,100000.34
2018-03-01T20:33:17.141Z,99996.16
2018-03-01T20:35:44.949Z,99995.95
2018-03-01T20:38:12.818Z,99967.78
2018-03-01T20:40:40.485Z,99993.59
2018-03-01T20:43:08.158Z,99993.89
2018-03-01T20:45:35.733Z,99995.97
2018-03-01T20:48:03.393Z,99989.90
2018-03-01T20:50:31.105Z,99993.37
2018-03-01T20:52:58.720Z,100002.08
2018-03-01T20:55:26.541Z,100001.59
2018-03-01T20:57:54.140Z,99992.87
2018-03-01T21:00:21.891Z,99986.34
2018-03-01T21:02:49.563Z,99998.33
2018-03-01T21:05:17.294Z,99988.78
2018-03-01T21:07:45.129Z,99963.69
2018-03-01T21:10:12.706Z,99959.12
2018-03-01T21:12:40.476Z,99971.61
2018-03-01T21:15:08.092Z,99961.98
2018-03-01T21:17:35.674Z,99948.48
2018-03-01T21:20:03.570Z,99951.57
2018-03-01T21:22:31.276Z,99944.91
2018-03-01T21:24:58.865Z,99936.47
2018-03-01T21:27:26.616Z,99936.35
2018-03-01T21:29:54.191Z,99935.48
2018-03-01T21:32:21.803Z,99925.07
2018-03-01T21:34:49.437Z,99935.78
2018-03-01T21:37:17.183Z,99936.77
2018-03-01T21:39:44.797Z,99926.45
2018-03-01T21:42:12.451Z,99926.95
2018-03-01T21:44:40.151Z,99927.23
2018-03-01T21:47:07.777Z,99926.52
2018-03-01T21:49:35.382Z,99924.34
2018-03-01T21:52:02.999Z,99920.55
2018-03-01T21:54:30.640Z,99916.98
2018-03-01T21:56:58.321Z,99915.68
2018-03-01T21:59:26.097Z,99906.77
2018-03-01T22:01:53.872Z,99910.53
2018-03-01T22:04:21.445Z,99890.19
2018-03-01T22:06:49.023Z,99902.08
2018-03-01T22:09:16.699Z,99906.56
2018-03-01T22:11:44.371Z,99900.69
2018-03-01T22:14:11.953Z,99886.31
2018-03-01T22:16:39.532Z,99887.91
2018-03-01T22:19:07.300Z,99878.87
2018-03-01T22:21:34.968Z,99884.44
2018-03-01T22:24:02.753Z,99887.70
2018-03-01T22:26:30.426Z,99885.32
2018-03-01T22:28:58.101Z,99876.97
2018-03-01T22:31:25.837Z,99878.25
2018-03-01T22:33:53.479Z,99883.70
2018-03-01T22:36:21.113Z,99866.75
2018-03-01T22:38:48.806Z,99875.28
2018-03-01T22:41:16.472Z,99877.84
2018-03-01T22:43:44.141Z,99872.47
2018-03-01T22:46:11.831Z,99861.39
2018-03-01T22:48:39.422Z,99873.07
2018-03-01T22:51:07.075Z,99872.48
2018-03-01T22:53:34.754Z,99879.12
2018-03-01T22:56:02.472Z,99878.33
2018-03-01T22:58:30.095Z,99880.86
2018-03-01T23:00:57.987Z,99876.03
2018-03-01T23:03:25.568Z,99878.78
2018-03-01T23:05:53.144Z,99881.55
2018-03-01T23:08:20.798Z,99879.27
2018-03-01T23:10:48.484Z,99880.95
2018-03-01T23:13:16.061Z,99857.74
2018-03-01T23:15:43.722Z,99876.17
2018-03-01T23:18:11.567Z,99862.58
2018-03-01T23:20:39.187Z,99858.05
2018-03-01T23:23:06.928Z,99863.95
2018-03-01T23:25:34.693Z,99858.84
2018-03-01T23:28:02.519Z,99860.70
2018-03-01T23:30:30.454Z,99867.54
2018-03-01T23:32:58.073Z,99858.60
2018-03-01T23:35:25.810Z,99852.04
2018-03-01T23:37:53.420Z,99843.92
2018-03-01T23:40:21.090Z,99845.41
2018-03-01T23:42:48.773Z,99840.23
2018-03-01T23:45:16.558Z,99834.70
2018-03-01T23:47:44.142Z,99840.23
2018-03-01T23:50:11.998Z,99834.48
2018-03-01T23:52:39.785Z,99835.19
2018-03-01T23:55:07.446Z,99833.48
2018-03-01T23:57:35.124Z,99827.22
